Time;durP1;ratioP1;P1;durP2;ratioP2;P2;SDS_P1;SDS_P2;PMS_P1;PMS_P2;Temp;Humidity;BMP_temperature;BMP_pressure;BME280_temperature;BME280_humidity;BME280_pressure;Samples;Min_cycle;Max_cycle;Signal;HPM_P1;HPM_P2
2022/08/16 00:02:03;;;;;;;3.58;1.40;;;;;;;28.10;40.71;100282.97;4950594;28;20039;-89
2022/08/16 00:04:34;;;;;;;1.80;1.70;;;;;;;28.52;41.50;100360.34;4950572;29;20023;-89
2022/08/16 00:07:14;;;;;;;4.15;2.20;;;;;;;28.49;40.97;100353.41;4950340;29;20071;-89
2022/08/16 00:09:43;;;;;;;3.08;1.95;;;;;;;28.26;41.51;100326.97;4948961;29;20058;-90
2022/08/16 00:12:09;;;;;;;3.30;2.15;;;;;;;28.42;41.46;100363.78;4964827;28;20027;-89
2022/08/16 00:14:34;;;;;;;2.42;1.52;;;;;;;28.29;40.68;100336.63;4948751;29;20091;-89
2022/08/16 00:17:09;;;;;;;2.72;2.10;;;;;;;28.23;41.62;100326.63;4948103;28;20100;-90
2022/08/16 00:19:48;;;;;;;;;;;;;;;;;;;;;
2022/08/16 00:22:22;;;;;;;5.28;2.03;;;;;;;28.12;41.18;100314.66;4967035;28;20456;-89
2022/08/16 00:25:02;;;;;;;7.20;1.77;;;;;;;28.32;41.27;100352.66;4949615;28;20514;-91
2022/08/16 00:27:43;;;;;;;3.33;1.70;;;;;;;28.24;40.84;100339.34;4936456;29;20452;-90
2022/08/16 00:30:14;;;;;;;1.95;1.63;;;;;;;28.04;40.99;100319.78;4950803;28;20028;-90
2022/08/16 00:32:50;;;;;;;7.90;2.13;;;;;;;28.11;40.91;100334.22;4949701;29;20030;-90
2022/08/16 00:35:24;;;;;;;3.22;2.05;;;;;;;27.90;41.09;100305.53;4965658;28;20045;-90
2022/08/16 00:37:58;;;;;;;3.58;2.22;;;;;;;28.06;41.31;100332.22;4948920;29;20046;-91
2022/08/16 00:40:46;;;;;;;3.63;2.03;;;;;;;27.85;41.53;100308.22;4949861;28;20038;-90
2022/08/16 00:43:26;;;;;;;4.40;1.95;;;;;;;27.86;41.59;100315.41;4948660;29;20066;-89
2022/08/16 00:46:00;;;;;;;4.75;1.90;;;;;;;27.75;40.86;100305.31;4935124;29;20035;-90
2022/08/16 00:48:29;;;;;;;3.17;1.67;;;;;;;27.77;41.00;100314.19;4966379;28;20106;-91
2022/08/16 00:50:55;;;;;;;4.00;2.08;;;;;;;27.73;40.67;100307.50;4949511;28;20499;-91
2022/08/16 00:53:26;;;;;;;8.57;1.67;;;;;;;27.87;40.80;100330.81;4949721;28;20039;-90
2022/08/16 00:56:17;;;;;;;3.20;1.88;;;;;;;27.75;40.86;100305.31;4933434;28;20054;-90
2022/08/16 00:58:44;;;;;;;3.67;1.98;;;;;;;28.03;41.13;100365.78;4964654;28;20027;-91
2022/08/16 01:01:16;;;;;;;2.90;1.95;;;;;;;27.65;41.38;100305.19;4965150;29;20094;-90
2022/08/16 01:04:00;;;;;;;;;;;;;;;;;;;;;
2022/08/16 01:06:35;;;;;;;3.15;2.40;;;;;;;27.88;41.72;100350.94;4964925;29;20460;-89
2022/08/16 01:09:07;;;;;;;7.18;2.05;;;;;;;27.64;41.74;100318.13;4950193;28;20051;-91
2022/08/16 01:11:54;;;;;;;;;;;;;;;28.09;41.14;100392.31;4948761;28;20111;-90
2022/08/16 01:14:24;;;;;;;2.42;1.63;;;;;;;27.80;41.65;100346.72;4965346;28;20320;-92
2022/08/16 01:16:55;;;;;;;3.22;1.85;;;;;;;27.59;40.75;100317.22;4948820;28;20091;-90
2022/08/16 01:20:02;;;;;;;2.05;1.50;;;;;;;28.02;41.21;100383.38;4949756;28;20023;-90
2022/08/16 01:22:47;;;;;;;2.33;1.70;;;;;;;27.98;41.18;100386.88;4963684;29;20495;-89
2022/08/16 01:25:24;;;;;;;3.15;1.70;;;;;;;27.55;42.03;100321.56;4966162;28;20055;-90
2022/08/16 01:27:52;;;;;;;3.78;2.15;;;;;;;27.94;41.02;100389.31;4949139;28;20027;-91
2022/08/16 01:30:49;;;;;;;4.78;2.35;;;;;;;27.42;41.09;100305.38;4949781;28;20627;-90
2022/08/16 01:36:24;;;;;;;2.88;2.03;;;;;;;27.35;41.58;100308.31;4966844;29;20028;-91
2022/08/16 01:38:56;;;;;;;5.55;1.58;;;;;;;27.33;41.15;100309.63;4951549;28;20071;-90
2022/08/16 01:41:24;;;;;;;5.32;1.83;;;;;;;27.44;41.31;100334.34;4950020;29;20485;-91
2022/08/16 01:43:51;;;;;;;4.60;1.83;;;;;;;27.31;42.11;100314.53;4965973;28;20024;-91
2022/08/16 01:46:42;;;;;;;2.72;2.15;;;;;;;27.53;41.26;100354.81;4949915;28;20023;-90
2022/08/16 01:49:14;;;;;;;4.82;1.92;;;;;;;27.47;41.96;100344.00;4950257;29;20081;-90
2022/08/16 01:51:46;;;;;;;1.88;1.67;;;;;;;27.26;41.11;100317.22;4949919;29;20030;-91
2022/08/16 01:54:20;;;;;;;3.83;2.00;;;;;;;27.74;41.32;100389.00;4953221;29;20018;-90
2022/08/16 01:56:49;;;;;;;1.92;1.75;;;;;;;27.74;41.60;100389.84;4955174;28;20035;-91
2022/08/16 01:59:18;;;;;;;5.47;2.17;;;;;;;27.66;42.30;100375.69;4955160;29;20106;-91
2022/08/16 02:01:49;;;;;;;2.08;1.80;;;;;;;27.45;41.92;100340.66;4938817;29;20500;-90
2022/08/16 02:04:36;;;;;;;5.90;2.15;;;;;;;27.53;41.32;100354.81;4970271;28;20046;-91
2022/08/16 02:07:08;;;;;;;3.63;1.58;;;;;;;27.41;42.24;100336.75;4954318;28;20031;-90
2022/08/16 02:09:39;;;;;;;4.17;2.33;;;;;;;27.23;41.99;100304.78;4954675;28;20027;-90
2022/08/16 02:12:07;;;;;;;3.85;2.20;;;;;;;27.63;41.49;100381.69;4953691;28;20066;-91
2022/08/16 02:14:40;;;;;;;5.93;2.45;;;;;;;27.33;41.52;100329.69;4969527;28;20027;-91
2022/08/16 02:20:00;;;;;;;3.33;2.45;;;;;;;27.12;41.41;100308.47;4973929;28;20061;-92
2022/08/16 02:22:27;;;;;;;4.47;2.00;;;;;;;27.60;41.75;100398.69;4954183;28;20126;-91
2022/08/16 02:24:55;;;;;;;3.83;2.45;;;;;;;27.19;42.01;100320.97;4953925;28;20258;-91
2022/08/16 02:27:26;;;;;;;2.78;1.95;;;;;;;27.08;41.75;100302.63;4953616;28;20047;-90
2022/08/16 02:29:52;;;;;;;6.57;2.17;;;;;;;27.11;41.52;100307.63;4952398;28;20062;-91
2022/08/16 02:32:28;;;;;;;2.22;1.80;;;;;;;27.22;42.07;100324.31;4952278;28;20477;-91
2022/08/16 02:34:54;;;;;;;2.08;1.95;;;;;;;27.09;41.99;100301.56;4967033;28;20425;-90
2022/08/16 02:37:19;;;;;;;6.65;2.47;;;;;;;27.16;42.00;100324.22;4966996;28;20038;-90
2022/08/16 02:39:45;;;;;;;4.38;2.28;;;;;;;27.02;42.13;100303.66;4950671;28;20034;-90
2022/08/16 02:42:11;;;;;;;2.45;2.17;;;;;;;26.99;42.50;100298.66;4952436;29;20037;-92
2022/08/16 02:44:36;;;;;;;5.55;2.08;;;;;;;27.21;42.56;100334.47;4936775;29;20027;-91
2022/08/16 02:47:02;;;;;;;5.82;2.72;;;;;;;27.08;42.20;100321.06;4953339;28;20046;-92
2022/08/16 02:49:27;;;;;;;4.97;2.30;;;;;;;26.91;42.22;100293.53;4967549;28;20030;-92
2022/08/16 02:52:07;;;;;;;;;;;;;;;;;;;;;
2022/08/16 02:54:42;;;;;;;2.20;2.00;;;;;;;26.98;42.18;100313.47;4969000;29;20447;-92
2022/08/16 02:57:08;;;;;;;4.78;1.75;;;;;;;27.13;42.37;100332.97;4969427;28;20050;-91
2022/08/16 02:59:57;;;;;;;2.22;2.03;;;;;;;26.83;42.85;100287.63;4951917;29;20023;-92
2022/08/16 03:02:24;;;;;;;2.88;2.40;;;;;;;27.21;43.01;100359.22;4984494;28;20028;-92
2022/08/16 03:04:49;;;;;;;5.47;2.25;;;;;;;27.03;42.42;100326.44;4951731;28;20487;-90
2022/08/16 03:07:18;;;;;;;4.47;2.13;;;;;;;27.00;42.33;100330.53;4950232;28;20121;-92
2022/08/16 03:09:44;;;;;;;5.50;2.25;;;;;;;26.80;42.12;100299.94;4951022;28;20023;-92
2022/08/16 03:12:10;;;;;;;3.20;2.50;;;;;;;27.25;42.92;100373.34;4952484;28;20481;-91
2022/08/16 03:14:36;;;;;;;5.68;2.22;;;;;;;27.00;43.39;100333.28;4951933;28;20114;-91
2022/08/16 03:17:07;;;;;;;3.58;2.28;;;;;;;27.21;42.71;100366.66;4967506;28;20062;-90
2022/08/16 03:19:33;;;;;;;2.72;1.63;;;;;;;26.77;42.86;100294.09;4951910;28;20145;-91
2022/08/16 03:22:01;;;;;;;8.32;2.72;;;;;;;26.75;42.29;100296.22;4951647;28;20030;-93
2022/08/16 03:24:27;;;;;;;2.28;2.05;;;;;;;27.04;43.17;100345.47;4950856;28;20051;-91
2022/08/16 03:27:01;;;;;;;3.38;2.42;;;;;;;26.99;43.07;100342.63;4949849;29;20149;-92
2022/08/16 03:29:33;;;;;;;3.50;2.45;;;;;;;26.71;42.90;100295.91;4949155;28;20055;-91
2022/08/16 03:32:03;;;;;;;4.10;2.47;;;;;;;27.02;42.49;100358.66;4948796;29;20471;-92
2022/08/16 03:34:32;;;;;;;4.88;3.00;;;;;;;26.88;43.28;100339.97;4965895;28;20084;-91
2022/08/16 03:36:59;;;;;;;3.00;2.03;;;;;;;26.91;43.37;100331.22;4965839;28;20027;-91
2022/08/16 03:39:30;;;;;;;2.95;2.08;;;;;;;26.67;43.29;100308.47;4950435;28;20094;-91
2022/08/16 03:42:02;;;;;;;4.72;2.33;;;;;;;27.14;43.57;100395.16;4950677;29;20509;-91
2022/08/16 03:44:31;;;;;;;3.95;2.58;;;;;;;26.67;42.51;100327.72;4934993;29;20041;-91
2022/08/16 03:47:01;;;;;;;3.70;2.40;;;;;;;26.83;43.08;100357.16;4950478;28;20519;-91
2022/08/16 03:49:29;;;;;;;3.70;2.33;;;;;;;26.66;43.40;100326.06;4950621;28;20038;-91
2022/08/16 03:51:55;;;;;;;2.50;2.22;;;;;;;26.67;42.96;100335.94;4951086;28;20066;-91
2022/08/16 03:54:21;;;;;;;6.30;2.42;;;;;;;26.81;43.61;100362.09;4949019;28;20027;-91
2022/08/16 03:56:46;;;;;;;2.85;2.30;;;;;;;26.63;43.58;100337.53;4948717;28;20038;-90
2022/08/16 03:59:13;;;;;;;6.82;2.60;;;;;;;26.53;43.31;100324.44;4934177;29;20022;-90
2022/08/16 04:01:45;;;;;;;5.63;2.38;;;;;;;26.61;43.71;100339.69;4949954;28;20023;-91
2022/08/16 04:04:11;;;;;;;3.60;2.03;;;;;;;26.98;43.35;100406.97;4950416;28;20078;-91
2022/08/16 04:06:39;;;;;;;5.40;3.47;;;;;;;26.48;43.12;100334.50;4961393;29;20492;-91
2022/08/16 04:09:05;;;;;;;2.60;2.33;;;;;;;26.65;44.03;100351.88;4937722;29;20024;-92
2022/08/16 04:11:30;;;;;;;4.65;2.30;;;;;;;26.67;43.27;100366.19;4949132;29;20062;-91
2022/08/16 04:14:03;;;;;;;4.03;2.72;;;;;;;26.50;43.71;100333.16;4961635;29;20069;-91
2022/08/16 04:16:40;;;;;;;3.70;2.70;;;;;;;26.82;43.62;100394.00;4946575;28;20023;-91
2022/08/16 04:19:06;;;;;;;5.32;2.92;;;;;;;26.51;43.79;100347.75;4951234;29;20023;-92
2022/08/16 04:21:36;;;;;;;2.95;2.60;;;;;;;26.53;43.30;100360.16;4950152;29;20037;-91
2022/08/16 04:24:02;;;;;;;3.30;2.40;;;;;;;26.77;43.43;100395.78;4946397;29;20007;-91
2022/08/16 04:26:28;;;;;;;5.18;3.00;;;;;;;26.90;43.64;100421.09;4929921;29;20062;-91
2022/08/16 04:28:55;;;;;;;3.90;2.60;;;;;;;26.57;43.22;100372.34;4946302;28;20043;-90
2022/08/16 04:31:20;;;;;;;4.72;2.58;;;;;;;26.41;44.28;100350.31;4929445;29;20027;-91
2022/08/16 04:33:46;;;;;;;3.65;2.72;;;;;;;26.67;44.24;100387.34;4929869;29;20016;-92
2022/08/16 04:36:13;;;;;;;4.95;3.05;;;;;;;26.30;43.61;100331.94;4931407;29;20028;-91
2022/08/16 04:38:48;;;;;;;4.50;2.30;;;;;;;26.37;43.90;100354.59;4930281;29;20028;-91
2022/08/16 04:41:27;;;;;;;;;;;;;;;;;;;;;
2022/08/16 04:43:52;;;;;;;2.80;2.50;;;;;;;26.71;44.03;100416.00;4945879;29;20115;-91
2022/08/16 04:46:21;;;;;;;4.45;2.30;;;;;;;26.43;43.70;100364.63;4929975;29;20464;-90
2022/08/16 04:48:47;;;;;;;2.67;2.15;;;;;;;26.69;43.74;100401.69;4931052;29;20061;-91
2022/08/16 04:51:15;;;;;;;4.28;2.70;;;;;;;26.39;44.18;100346.94;4932057;29;20046;-92
2022/08/16 04:53:44;;;;;;;5.82;2.70;;;;;;;26.65;43.65;100384.00;4931890;29;20058;-91
2022/08/16 04:56:13;;;;;;;5.63;2.83;;;;;;;26.57;44.24;100371.50;4931454;29;20409;-92
2022/08/16 04:58:41;;;;;;;7.40;2.85;;;;;;;26.40;44.10;100343.13;4932572;29;20131;-91
2022/08/16 05:01:07;;;;;;;4.45;2.70;;;;;;;26.68;44.15;100395.34;4931470;29;20055;-91
2022/08/16 05:03:35;;;;;;;5.05;3.08;;;;;;;26.72;44.21;100404.75;4931013;29;20042;-91
2022/08/16 05:06:06;;;;;;;5.80;2.95;;;;;;;26.52;43.71;100357.66;4947596;28;20036;-92
2022/08/16 05:08:35;;;;;;;3.88;2.40;;;;;;;26.67;43.63;100379.94;4931545;29;20082;-91
2022/08/16 05:11:28;;;;;;;4.75;2.97;;;;;;;26.54;44.04;100356.34;4946686;28;20445;-91
2022/08/16 05:13:54;;;;;;;3.72;2.80;;;;;;;26.85;43.28;100387.19;4945909;29;20042;-92
2022/08/16 05:16:26;;;;;;;4.95;2.30;;;;;;;26.69;44.20;100364.00;4930563;29;20031;-91
2022/08/16 05:18:53;;;;;;;4.10;2.42;;;;;;;26.82;43.10;100374.78;4931506;29;20071;-92
2022/08/16 05:21:35;;;;;;;3.75;2.30;;;;;;;26.89;43.91;100378.19;4931585;29;20036;-91
2022/08/16 05:24:04;;;;;;;3.08;2.30;;;;;;;27.06;43.77;100390.06;4948634;28;20031;-92
2022/08/16 05:26:31;;;;;;;5.68;2.35;;;;;;;27.57;43.35;100466.09;4934024;28;20036;-92
2022/08/16 05:28:58;;;;;;;4.13;2.67;;;;;;;27.40;43.04;100421.19;4917430;29;20040;-92
2022/08/16 05:31:26;;;;;;;5.13;1.98;;;;;;;27.25;43.36;100384.34;4935243;29;20023;-92
2022/08/16 05:33:52;;;;;;;4.82;2.70;;;;;;;27.31;43.67;100380.56;4936475;29;20032;-92
2022/08/16 05:36:20;;;;;;;7.65;3.40;;;;;;;27.66;43.59;100428.81;4936119;29;20039;-92
2022/08/16 05:38:48;;;;;;;10.13;2.30;;;;;;;27.51;42.90;100389.19;4936928;28;20064;-92
2022/08/16 05:41:17;;;;;;;3.35;2.80;;;;;;;27.87;42.73;100435.47;4952589;28;20067;-92
2022/08/16 05:43:43;;;;;;;4.70;2.60;;;;;;;28.16;43.67;100459.09;4936044;29;20086;-92
2022/08/16 05:46:11;;;;;;;2.83;1.90;;;;;;;27.82;42.55;100385.84;4936101;29;20130;-92
2022/08/16 05:48:39;;;;;;;2.67;2.30;;;;;;;28.12;43.38;100419.34;4951504;28;20012;-91
2022/08/16 05:51:20;;;;;;;5.80;2.22;;;;;;;28.15;42.78;100407.81;4937991;29;20036;-91
2022/08/16 05:53:46;;;;;;;3.60;2.17;;;;;;;28.37;42.67;100427.13;4953694;29;20031;-92
2022/08/16 05:56:17;;;;;;;3.92;2.33;;;;;;;28.30;42.71;100399.78;4951587;28;20031;-93
2022/08/16 05:58:46;;;;;;;6.90;2.47;;;;;;;28.80;41.87;100464.94;4941790;29;20027;-92
2022/08/16 06:03:48;;;;;;;;;;;;;;;29.22;42.47;100479.78;5015289;28;20073;-59
2022/08/16 06:06:14;;;;;;;6.13;2.40;;;;;;;29.28;42.01;100459.44;5015181;28;19917;-60
2022/08/16 06:08:39;;;;;;;2.58;2.35;;;;;;;29.53;42.09;100480.09;5015063;28;20518;-59
2022/08/16 06:11:07;;;;;;;3.05;2.03;;;;;;;29.67;41.63;100482.16;5014903;28;20033;-60
2022/08/16 06:13:33;;;;;;;3.90;2.35;;;;;;;29.80;41.32;100469.84;5016214;28;20111;-60
2022/08/16 06:15:58;;;;;;;3.25;2.42;;;;;;;29.89;41.31;100469.09;5015259;28;20514;-59
2022/08/16 06:18:24;;;;;;;6.18;2.75;;;;;;;30.06;40.96;100470.88;5016161;28;20053;-59
2022/08/16 06:20:50;;;;;;;5.95;3.22;;;;;;;30.18;40.78;100477.84;5016324;28;20475;-60
2022/08/16 06:23:16;;;;;;;6.93;2.40;;;;;;;30.28;40.86;100477.94;5015985;28;20029;-59
2022/08/16 06:25:41;;;;;;;5.78;3.30;;;;;;;30.37;40.93;100470.00;5015945;28;20041;-59
2022/08/16 06:28:10;;;;;;;6.15;2.78;;;;;;;30.47;40.34;100479.19;5015939;28;20196;-60
2022/08/16 06:30:37;;;;;;;8.00;2.60;;;;;;;30.49;40.22;100485.28;5016128;28;20022;-60
2022/08/16 06:33:02;;;;;;;6.95;3.20;;;;;;;30.54;40.24;100481.72;5014562;28;20038;-60
2022/08/16 06:35:28;;;;;;;4.30;2.80;;;;;;;30.60;40.95;100485.34;5015763;28;20506;-60
2022/08/16 06:37:53;;;;;;;7.35;2.53;;;;;;;30.70;40.17;100488.13;5015731;28;20033;-60
2022/08/16 06:40:19;;;;;;;3.10;2.80;;;;;;;30.80;40.35;100488.16;5014612;28;20494;-60
2022/08/16 06:42:44;;;;;;;4.18;3.08;;;;;;;30.89;39.88;100483.78;5014773;28;20033;-60
2022/08/16 06:45:10;;;;;;;11.68;3.17;;;;;;;30.95;40.12;100483.56;5015681;28;20434;-59
2022/08/16 06:47:35;;;;;;;5.10;2.80;;;;;;;31.08;39.89;100485.81;5015620;28;20394;-60
2022/08/16 06:50:00;;;;;;;5.55;3.50;;;;;;;31.19;39.57;100486.69;5015453;28;20037;-60
2022/08/16 06:52:35;;;;;;;5.13;3.30;;;;;;;31.31;39.73;100489.19;5014158;28;20526;-59
2022/08/16 06:55:03;;;;;;;4.63;2.80;;;;;;;31.44;39.77;100492.25;5015425;28;20106;-60
2022/08/16 06:57:28;;;;;;;10.50;3.65;;;;;;;31.60;39.39;100493.97;5015493;28;20092;-59
2022/08/16 06:59:54;;;;;;;7.47;3.20;;;;;;;31.79;38.97;100499.81;5015371;28;20037;-60
2022/08/16 07:02:19;;;;;;;7.32;3.35;;;;;;;31.90;38.81;100500.63;5015264;28;20099;-59
2022/08/16 07:04:45;;;;;;;5.82;3.72;;;;;;;32.04;39.14;100504.53;5014145;28;20034;-60
2022/08/16 07:07:11;;;;;;;6.43;3.30;;;;;;;32.15;38.50;100508.97;5015279;28;20022;-60
2022/08/16 07:09:37;;;;;;;4.80;3.17;;;;;;;32.22;38.68;100503.94;5015050;28;20457;-59
2022/08/16 07:12:03;;;;;;;4.40;3.15;;;;;;;32.46;38.02;100507.81;5015067;28;20113;-60
2022/08/16 07:14:28;;;;;;;6.40;3.88;;;;;;;32.54;38.83;100507.25;5015507;28;20029;-60
2022/08/16 07:16:56;;;;;;;6.55;3.97;;;;;;;32.74;37.73;100515.53;5015027;28;20030;-60
2022/08/16 07:19:21;;;;;;;6.57;3.13;;;;;;;33.00;37.82;100507.91;5014169;28;20179;-60
2022/08/16 07:21:47;;;;;;;4.50;3.40;;;;;;;33.23;37.83;100511.97;5014929;28;20438;-60
2022/08/16 07:24:12;;;;;;;4.10;3.45;;;;;;;33.45;37.52;100520.72;5013583;28;20606;-60
2022/08/16 07:26:38;;;;;;;5.80;3.40;;;;;;;33.64;37.57;100521.75;5013690;28;20049;-60
2022/08/16 07:29:03;;;;;;;5.57;3.55;;;;;;;33.79;36.95;100513.28;5015089;28;20110;-60
2022/08/16 07:31:28;;;;;;;11.18;4.85;;;;;;;34.00;36.28;100508.41;5013575;28;20025;-60
2022/08/16 07:33:54;;;;;;;6.22;3.70;;;;;;;34.12;36.85;100497.72;5015116;28;20522;-60
2022/08/16 07:36:21;;;;;;;6.15;3.88;;;;;;;34.32;36.45;100503.09;5014747;28;20106;-60
2022/08/16 07:38:46;;;;;;;4.18;3.38;;;;;;;34.49;35.55;100506.25;5014744;28;20479;-60
2022/08/16 07:41:12;;;;;;;6.93;3.85;;;;;;;34.65;36.24;100512.50;5014639;28;20083;-60
2022/08/16 07:43:38;;;;;;;6.18;3.25;;;;;;;34.76;35.29;100505.69;5013364;28;20106;-60
2022/08/16 07:46:03;;;;;;;6.40;4.03;;;;;;;34.91;35.49;100511.06;5013426;28;20021;-60
2022/08/16 07:48:29;;;;;;;5.50;3.70;;;;;;;35.07;35.66;100517.28;5014484;28;20109;-60
2022/08/16 07:50:55;;;;;;;5.22;3.97;;;;;;;35.23;35.08;100521.56;5013156;28;20033;-60
2022/08/16 07:53:20;;;;;;;3.95;3.20;;;;;;;35.41;35.07;100519.88;5014060;28;20040;-60
2022/08/16 07:55:47;;;;;;;5.55;3.63;;;;;;;35.61;34.79;100522.41;5014373;28;20079;-60
2022/08/16 07:58:13;;;;;;;5.82;3.45;;;;;;;35.77;34.73;100521.03;5014533;28;20028;-59
2022/08/16 08:00:38;;;;;;;7.05;3.67;;;;;;;35.92;34.45;100523.56;5014268;28;20034;-60
2022/08/16 08:03:04;;;;;;;8.40;5.13;;;;;;;36.05;34.09;100522.81;5013798;28;20518;-60
2022/08/16 08:05:29;;;;;;;4.78;3.78;;;;;;;36.25;33.66;100523.59;5014091;28;20034;-60
2022/08/16 08:07:55;;;;;;;7.57;3.80;;;;;;;36.36;33.73;100523.09;5014017;28;20026;-60
2022/08/16 08:10:22;;;;;;;6.80;4.20;;;;;;;36.39;33.74;100522.47;5014203;28;20034;-60
2022/08/16 08:12:49;;;;;;;4.63;4.22;;;;;;;36.28;33.67;100515.44;5012875;28;20030;-60
2022/08/16 08:15:15;;;;;;;3.88;3.47;;;;;;;36.34;33.72;100524.53;4996422;28;20029;-60
2022/08/16 08:17:41;;;;;;;5.47;3.72;;;;;;;36.38;33.53;100520.81;4996372;28;20501;-60
2022/08/16 08:20:08;;;;;;;4.10;2.75;;;;;;;36.49;33.62;100527.06;5013095;28;20034;-60
2022/08/16 08:22:34;;;;;;;5.13;3.50;;;;;;;36.81;33.11;100520.56;5012707;28;20576;-60
2022/08/16 08:24:59;;;;;;;4.18;3.08;;;;;;;37.06;32.37;100526.47;5013826;28;20025;-60
2022/08/16 08:27:25;;;;;;;5.47;3.30;;;;;;;37.32;32.70;100535.97;5013875;28;20057;-60
2022/08/16 08:29:50;;;;;;;4.93;3.65;;;;;;;37.50;31.78;100533.34;5013880;28;20033;-60
2022/08/16 08:32:18;;;;;;;5.18;3.58;;;;;;;37.51;32.78;100532.22;5013729;28;20121;-61
2022/08/16 08:34:44;;;;;;;7.82;4.22;;;;;;;37.49;32.54;100535.34;5014173;28;20036;-60
2022/08/16 08:37:09;;;;;;;5.65;3.55;;;;;;;37.55;32.27;100522.06;5013714;28;20112;-60
2022/08/16 08:39:37;;;;;;;4.72;3.72;;;;;;;37.72;32.37;100550.16;5012424;28;20033;-60
2022/08/16 08:42:04;;;;;;;5.43;3.50;;;;;;;37.79;32.17;100550.56;5013595;28;20164;-61
2022/08/16 08:44:30;;;;;;;6.82;3.75;;;;;;;37.98;31.67;100545.63;5012492;28;20030;-60
2022/08/16 08:47:00;;;;;;;7.90;4.10;;;;;;;38.04;31.85;100547.16;5013486;28;20116;-60
2022/08/16 08:49:25;;;;;;;7.90;4.18;;;;;;;38.08;31.61;100552.94;5013586;28;20036;-60
2022/08/16 08:51:51;;;;;;;5.47;4.10;;;;;;;38.11;31.30;100552.31;5013563;28;20030;-60
2022/08/16 08:54:16;;;;;;;6.57;3.80;;;;;;;38.20;31.21;100551.22;5013754;28;20026;-60
2022/08/16 08:56:41;;;;;;;5.75;3.47;;;;;;;38.38;31.10;100550.22;5013972;28;20471;-60
2022/08/16 08:59:08;;;;;;;7.47;4.15;;;;;;;38.43;30.29;100550.06;5013464;28;20029;-60
2022/08/16 09:01:36;;;;;;;4.50;3.53;;;;;;;38.51;31.14;100539.22;5013397;28;20095;-59
2022/08/16 09:04:03;;;;;;;8.00;4.30;;;;;;;38.63;29.97;100548.69;5013835;28;20065;-61
2022/08/16 09:06:31;;;;;;;5.30;4.13;;;;;;;38.76;30.66;100542.16;5017818;28;20443;-61
2022/08/16 09:08:57;;;;;;;9.30;3.65;;;;;;;38.88;30.07;100541.56;5017801;28;20102;-60
2022/08/16 09:11:22;;;;;;;5.57;4.30;;;;;;;38.89;30.16;100537.63;5017423;28;20021;-61
2022/08/16 09:13:49;;;;;;;6.30;4.07;;;;;;;38.99;30.01;100534.50;5017351;28;20038;-61
2022/08/16 09:16:15;;;;;;;5.60;4.93;;;;;;;39.21;29.88;100539.19;5017323;28;20021;-60
2022/08/16 09:18:41;;;;;;;5.85;3.85;;;;;;;39.37;29.95;100544.00;5017488;28;20065;-60
2022/08/16 09:21:07;;;;;;;5.22;3.42;;;;;;;39.49;30.08;100555.41;5016018;28;20483;-60
2022/08/16 09:23:34;;;;;;;3.97;3.22;;;;;;;39.54;29.26;100546.84;5016428;28;20105;-61
2022/08/16 09:26:00;;;;;;;8.05;3.80;;;;;;;39.63;28.78;100546.00;5016024;28;20084;-60
2022/08/16 09:28:27;;;;;;;5.13;3.45;;;;;;;39.71;29.22;100543.22;5017110;28;20476;-60
2022/08/16 09:30:52;;;;;;;3.90;3.40;;;;;;;39.68;28.58;100537.44;5017277;28;20387;-60
2022/08/16 09:33:18;;;;;;;7.28;3.15;;;;;;;39.81;28.54;100544.91;5016809;28;20033;-60
2022/08/16 09:35:44;;;;;;;3.33;2.95;;;;;;;39.93;28.46;100539.41;5016931;28;20041;-60
2022/08/16 09:38:12;;;;;;;8.63;3.30;;;;;;;40.13;28.49;100544.38;5016884;28;20030;-59
2022/08/16 09:40:41;;;;;;;3.95;3.55;;;;;;;40.30;28.63;100535.09;5016769;28;20030;-61
2022/08/16 09:43:11;;;;;;;11.18;3.55;;;;;;;40.48;27.67;100531.88;5015713;28;20021;-60
2022/08/16 09:45:40;;;;;;;6.00;4.05;;;;;;;40.59;27.40;100532.38;5016809;28;20080;-61
2022/08/16 09:48:07;;;;;;;3.95;2.78;;;;;;;40.63;27.43;100534.19;5015833;28;20038;-60
2022/08/16 09:50:34;;;;;;;3.75;3.25;;;;;;;40.72;27.51;100530.50;5015593;28;20026;-61
2022/08/16 09:53:01;;;;;;;5.70;2.95;;;;;;;40.87;27.40;100538.38;5015287;28;20487;-60
2022/08/16 09:55:26;;;;;;;7.80;2.92;;;;;;;41.13;27.17;100533.44;4999018;28;20033;-60
2022/08/16 09:57:51;;;;;;;6.65;3.03;;;;;;;41.57;27.42;100530.00;5016497;28;20399;-60
2022/08/16 10:00:17;;;;;;;5.97;4.78;;;;;;;42.21;26.47;100541.72;5016444;28;20029;-60
2022/08/16 10:02:43;;;;;;;5.65;3.10;;;;;;;43.00;25.99;100543.28;5016386;28;20046;-60
2022/08/16 10:05:10;;;;;;;4.68;3.65;;;;;;;44.17;24.70;100527.94;5016346;28;20057;-60
2022/08/16 10:07:35;;;;;;;6.20;3.45;;;;;;;45.40;23.33;100543.66;5016685;28;20029;-60
2022/08/16 10:10:01;;;;;;;3.40;3.10;;;;;;;45.27;23.92;100533.63;5015067;28;20390;-61
2022/08/16 10:15:15;;;;;;;6.07;3.08;;;;;;;44.49;24.30;100534.47;5015055;28;20044;-60
2022/08/16 10:17:41;;;;;;;3.95;2.92;;;;;;;44.30;24.47;100534.34;5016104;28;20064;-61
2022/08/16 10:20:10;;;;;;;2.97;2.70;;;;;;;44.30;24.21;100535.19;5016143;28;20395;-60
2022/08/16 10:22:35;;;;;;;7.82;3.72;;;;;;;44.47;24.22;100528.34;5014921;28;20048;-60
2022/08/16 10:25:01;;;;;;;4.28;2.47;;;;;;;44.68;24.31;100534.56;5015869;28;20475;-60
2022/08/16 10:27:26;;;;;;;3.88;2.28;;;;;;;44.47;23.86;100531.19;5016035;28;20026;-60
2022/08/16 10:29:52;;;;;;;5.70;2.78;;;;;;;43.97;24.22;100534.63;5016054;28;20060;-60
2022/08/16 10:32:19;;;;;;;2.83;2.38;;;;;;;43.49;24.69;100538.41;5015824;28;20046;-60
2022/08/16 10:34:45;;;;;;;2.92;2.63;;;;;;;43.07;24.56;100537.88;5015815;28;20436;-60
2022/08/16 10:37:11;;;;;;;3.13;2.28;;;;;;;42.74;24.47;100546.44;5015784;28;20059;-60
2022/08/16 10:39:38;;;;;;;4.13;2.80;;;;;;;42.99;24.46;100538.81;5016130;28;20053;-60
2022/08/16 10:42:04;;;;;;;5.40;2.85;;;;;;;43.60;23.62;100544.38;5015711;28;20065;-60
2022/08/16 10:44:30;;;;;;;3.15;2.85;;;;;;;44.08;23.26;100541.41;5015967;28;20065;-60
2022/08/16 10:46:55;;;;;;;4.72;2.30;;;;;;;44.54;23.19;100539.88;4998257;28;20025;-61
2022/08/16 10:49:20;;;;;;;5.07;2.35;;;;;;;44.71;22.59;100550.81;5014343;28;20030;-60
2022/08/16 10:51:46;;;;;;;2.70;2.42;;;;;;;44.83;22.93;100547.91;5015433;28;20038;-60
2022/08/16 10:54:11;;;;;;;3.03;2.72;;;;;;;45.04;22.40;100548.44;5015382;28;20030;-60
2022/08/16 10:56:37;;;;;;;2.17;2.08;;;;;;;45.36;22.65;100545.56;5015466;28;20037;-60
2022/08/16 10:59:02;;;;;;;7.68;2.35;;;;;;;45.45;21.96;100546.19;5015456;28;20084;-60
2022/08/16 11:01:27;;;;;;;2.10;1.90;;;;;;;45.66;21.72;100549.50;5015320;28;20509;-60
2022/08/16 11:03:53;;;;;;;4.43;2.35;;;;;;;45.65;21.72;100545.03;5015234;28;20084;-62
2022/08/16 11:06:19;;;;;;;4.15;2.22;;;;;;;45.61;21.74;100544.13;5015630;28;20494;-61
2022/08/16 11:08:44;;;;;;;2.17;1.83;;;;;;;44.92;22.20;100545.75;5015228;28;20471;-60
2022/08/16 11:11:12;;;;;;;1.90;1.80;;;;;;;44.67;22.40;100563.22;5015236;28;20030;-60
2022/08/16 11:13:37;;;;;;;3.63;1.60;;;;;;;44.32;22.73;100560.25;5015144;28;20037;-60
2022/08/16 11:16:03;;;;;;;4.25;1.58;;;;;;;43.82;22.32;100557.97;5015129;28;20042;-61
2022/08/16 11:18:28;;;;;;;2.95;1.90;;;;;;;43.23;22.89;100567.00;5015053;28;20042;-61
2022/08/16 11:20:55;;;;;;;2.80;1.90;;;;;;;42.69;23.19;100569.19;5014589;28;20395;-60
2022/08/16 11:23:21;;;;;;;7.65;2.45;;;;;;;42.13;23.35;100570.75;5013277;28;20044;-60
2022/08/16 11:25:47;;;;;;;4.25;1.92;;;;;;;41.64;23.44;100572.50;5013605;28;20026;-60
2022/08/16 11:28:13;;;;;;;3.42;2.55;;;;;;;41.21;23.72;100571.94;5014470;28;20022;-60
2022/08/16 11:30:39;;;;;;;3.00;1.85;;;;;;;41.04;23.58;100572.06;5014821;28;20036;-60
2022/08/16 11:33:06;;;;;;;3.40;2.17;;;;;;;41.18;23.77;100573.44;5013598;28;20053;-60
2022/08/16 11:35:32;;;;;;;3.60;2.00;;;;;;;41.32;23.47;100578.88;5013310;28;20438;-60
2022/08/16 11:38:01;;;;;;;5.47;2.08;;;;;;;41.90;23.30;100577.94;5014633;28;20048;-61
2022/08/16 11:40:30;;;;;;;5.25;2.70;;;;;;;42.55;22.88;100571.53;5014695;28;20467;-60
2022/08/16 11:42:56;;;;;;;3.05;1.90;;;;;;;42.96;22.69;100581.00;5014743;28;20026;-60
2022/08/16 11:45:22;;;;;;;3.33;2.35;;;;;;;43.45;22.69;100588.28;5013382;28;20101;-61
2022/08/16 11:47:47;;;;;;;3.67;2.53;;;;;;;44.06;22.36;100580.47;5014427;28;20030;-60
2022/08/16 11:50:32;;;;;;;6.50;2.35;;;;;;;44.62;21.84;100575.63;5014571;28;20042;-60